createdAt,value
2022-09-07T00:01:40.054Z,2.10
2022-09-07T00:04:41.397Z,1.88
2022-09-07T00:07:42.754Z,2.10
2022-09-07T00:10:58.359Z,2.40
2022-09-07T00:13:59.791Z,1.88
2022-09-07T00:17:01.107Z,1.92
2022-09-07T00:20:03.051Z,1.92
2022-09-07T00:23:04.637Z,2.08
2022-09-07T00:26:16.427Z,1.95
2022-09-07T00:29:17.738Z,1.83
2022-09-07T00:32:19.036Z,1.58
2022-09-07T00:35:20.334Z,1.85
2022-09-07T00:38:21.882Z,1.75
2022-09-07T00:41:23.316Z,1.80
2022-09-07T00:44:57.165Z,1.73
2022-09-07T00:48:01.256Z,2.03
2022-09-07T00:51:05.181Z,2.03
2022-09-07T00:57:08.239Z,1.80
2022-09-07T01:00:09.983Z,2.47
2022-09-07T01:03:11.771Z,2.20
2022-09-07T01:06:16.434Z,1.90
2022-09-07T01:09:20.752Z,1.95
2022-09-07T01:12:22.085Z,2.10
2022-09-07T01:15:25.923Z,2.20
2022-09-07T01:18:27.225Z,1.50
2022-09-07T01:21:47.155Z,2.00
2022-09-07T01:25:01.290Z,2.03
2022-09-07T01:28:22.024Z,1.98
2022-09-07T01:31:33.153Z,1.85
2022-09-07T01:34:34.572Z,1.80
2022-09-07T01:37:56.327Z,2.00
2022-09-07T01:41:04.215Z,2.53
2022-09-07T01:44:20.769Z,1.90
2022-09-07T01:47:30.966Z,2.30
2022-09-07T01:50:41.058Z,1.98
2022-09-07T01:53:46.257Z,2.28
2022-09-07T01:56:49.832Z,2.53
2022-09-07T02:00:11.406Z,2.13
2022-09-07T02:03:20.270Z,2.58
2022-09-07T02:06:47.669Z,2.60
2022-09-07T02:10:15.290Z,2.90
2022-09-07T02:13:19.286Z,2.30
2022-09-07T02:16:26.736Z,2.47
2022-09-07T02:19:30.122Z,3.60
2022-09-07T02:22:34.107Z,3.20
2022-09-07T02:25:52.299Z,2.92
2022-09-07T02:28:53.644Z,3.15
2022-09-07T02:31:54.944Z,4.60
2022-09-07T02:34:56.714Z,4.25
2022-09-07T02:37:59.194Z,3.40
2022-09-07T02:41:01.230Z,3.50
2022-09-07T02:44:04.322Z,3.58
2022-09-07T02:47:08.681Z,4.07
2022-09-07T02:50:25.038Z,4.20
2022-09-07T02:53:45.290Z,4.47
2022-09-07T02:56:49.425Z,4.88
2022-09-07T03:02:57.690Z,3.78
2022-09-07T03:05:59.902Z,4.28
2022-09-07T03:09:05.358Z,3.78
2022-09-07T03:12:07.715Z,4.05
2022-09-07T03:15:11.076Z,3.17
2022-09-07T03:18:12.638Z,3.03
2022-09-07T03:21:14.018Z,3.10
2022-09-07T03:24:15.318Z,3.10
2022-09-07T03:27:17.692Z,3.15
2022-09-07T03:30:19.089Z,3.08
2022-09-07T03:33:20.445Z,2.90
2022-09-07T03:36:21.786Z,3.65
2022-09-07T03:39:25.184Z,2.55
2022-09-07T03:42:26.570Z,2.72
2022-09-07T03:45:27.892Z,2.45
2022-09-07T03:48:35.208Z,2.42
2022-09-07T03:51:36.637Z,3.30
2022-09-07T03:54:39.795Z,3.08
2022-09-07T03:57:42.734Z,3.83
2022-09-07T04:00:44.128Z,3.38
2022-09-07T04:03:46.008Z,3.00
2022-09-07T04:06:47.385Z,3.20
2022-09-07T04:09:49.049Z,3.80
2022-09-07T04:12:50.487Z,3.65
2022-09-07T04:15:53.903Z,3.80
2022-09-07T04:18:55.587Z,3.90
2022-09-07T04:21:56.930Z,3.33
2022-09-07T04:24:58.246Z,3.55
2022-09-07T04:27:59.657Z,4.50
2022-09-07T04:31:02.028Z,4.20
2022-09-07T04:34:04.045Z,4.18
2022-09-07T04:37:05.374Z,3.65
2022-09-07T04:40:06.904Z,3.53
2022-09-07T04:43:09.528Z,3.90
2022-09-07T04:46:14.871Z,4.07
2022-09-07T04:49:16.262Z,4.65
2022-09-07T04:52:17.678Z,3.85
2022-09-07T04:55:19.131Z,4.68
2022-09-07T04:58:20.459Z,4.72
2022-09-07T05:01:23.303Z,4.00
2022-09-07T05:04:24.677Z,4.47
2022-09-07T05:07:26.038Z,5.07
2022-09-07T05:10:27.358Z,4.82
2022-09-07T05:13:29.558Z,4.80
2022-09-07T05:16:31.453Z,5.60
2022-09-07T05:19:32.917Z,5.80
2022-09-07T05:22:35.533Z,5.30
2022-09-07T05:25:42.183Z,5.53
2022-09-07T05:28:44.238Z,6.15
2022-09-07T05:31:45.859Z,5.80
2022-09-07T05:34:49.671Z,6.20
2022-09-07T05:37:52.328Z,6.20
2022-09-07T05:40:53.765Z,6.03
2022-09-07T05:47:16.461Z,5.45
2022-09-07T05:50:18.009Z,5.50
2022-09-07T05:53:20.218Z,6.45
2022-09-07T05:56:21.699Z,6.70
2022-09-07T05:59:23.053Z,6.13
2022-09-07T06:02:24.473Z,7.25
2022-09-07T06:05:25.854Z,5.53
2022-09-07T06:08:27.181Z,6.25
2022-09-07T06:11:28.555Z,5.40
2022-09-07T06:14:29.917Z,5.07
2022-09-07T06:17:31.453Z,4.38
2022-09-07T06:20:32.875Z,4.45
2022-09-07T06:23:34.705Z,4.10
2022-09-07T06:26:36.017Z,3.33
2022-09-07T06:29:37.363Z,3.03
2022-09-07T06:35:42.978Z,3.03
2022-09-07T06:38:44.740Z,3.00
2022-09-07T06:42:01.495Z,2.95
2022-09-07T06:45:03.142Z,3.00
2022-09-07T06:48:04.556Z,3.20
2022-09-07T06:51:07.949Z,2.50
2022-09-07T06:57:30.878Z,2.50
2022-09-07T07:00:32.181Z,3.28
2022-09-07T07:03:33.576Z,3.00
2022-09-07T07:06:35.589Z,3.20
2022-09-07T07:09:36.926Z,3.38
2022-09-07T07:15:38.593Z,2.80
2022-09-07T07:18:40.360Z,2.90
2022-09-07T07:22:07.851Z,2.13
2022-09-07T07:25:03.874Z,2.80
2022-09-07T07:31:27.051Z,2.10
2022-09-07T07:34:28.615Z,2.00
2022-09-07T07:37:29.935Z,2.92
2022-09-07T07:40:32.540Z,2.42
2022-09-07T07:43:35.405Z,1.60
2022-09-07T07:46:36.765Z,2.20
2022-09-07T07:49:38.302Z,2.40
2022-09-07T07:56:01.746Z,2.65
2022-09-07T07:59:03.167Z,2.00
2022-09-07T08:02:08.713Z,2.10
2022-09-07T08:05:10.346Z,2.03
2022-09-07T08:08:11.866Z,1.90
2022-09-07T08:11:13.244Z,2.80
2022-09-07T08:14:14.535Z,1.85
2022-09-07T08:17:16.878Z,1.75
2022-09-07T08:20:18.288Z,1.88
2022-09-07T08:23:20.415Z,1.83
2022-09-07T08:26:21.661Z,2.20
2022-09-07T08:29:22.975Z,1.70
2022-09-07T08:32:24.254Z,1.75
2022-09-07T08:35:25.486Z,1.45
2022-09-07T08:38:28.377Z,1.30
2022-09-07T08:41:48.500Z,1.40
2022-09-07T08:45:00.282Z,1.27
2022-09-07T08:48:04.649Z,1.50
2022-09-07T08:51:11.327Z,1.40
2022-09-07T08:54:13.697Z,1.50
2022-09-07T08:57:22.157Z,1.30
2022-09-07T09:00:23.480Z,1.35
2022-09-07T09:03:29.074Z,1.33
2022-09-07T09:06:34.192Z,1.50
2022-09-07T09:09:43.398Z,1.85
2022-09-07T09:12:44.616Z,1.33
2022-09-07T09:16:04.492Z,1.13
2022-09-07T09:19:15.889Z,1.45
2022-09-07T09:22:21.307Z,1.67
2022-09-07T09:25:26.965Z,1.50
2022-09-07T09:28:31.750Z,1.63
2022-09-07T09:31:35.945Z,1.50
2022-09-07T09:34:37.240Z,1.50
2022-09-07T09:37:39.668Z,1.40
2022-09-07T09:40:42.616Z,1.27
2022-09-07T09:43:52.703Z,1.30
2022-09-07T09:53:52.760Z,1.40
2022-09-07T09:56:54.146Z,1.23
2022-09-07T10:00:05.239Z,1.50
2022-09-07T10:06:35.890Z,1.40
2022-09-07T10:09:38.793Z,1.20
2022-09-07T10:12:40.372Z,1.30
2022-09-07T10:15:41.826Z,1.27
2022-09-07T10:18:59.313Z,1.30
2022-09-07T10:22:02.185Z,1.20
2022-09-07T10:25:05.423Z,1.30
2022-09-07T10:28:13.273Z,1.92
2022-09-07T10:31:40.797Z,1.65
2022-09-07T10:34:45.040Z,2.35
2022-09-07T10:37:56.793Z,1.30
2022-09-07T10:41:07.274Z,1.40
2022-09-07T10:44:16.417Z,1.50
2022-09-07T10:47:20.498Z,1.50
2022-09-07T10:50:28.706Z,1.40
2022-09-07T10:53:41.338Z,1.52
2022-09-07T10:56:58.366Z,1.45
2022-09-07T11:00:10.233Z,1.67
2022-09-07T11:03:27.890Z,1.70
2022-09-07T11:06:32.519Z,1.60
2022-09-07T11:09:52.772Z,1.60
2022-09-07T11:12:56.243Z,2.05
2022-09-07T11:16:02.887Z,1.73
2022-09-07T11:22:42.131Z,1.42
2022-09-07T11:26:03.779Z,1.30
2022-09-07T11:32:37.459Z,1.58
2022-09-07T11:35:47.341Z,1.80
2022-09-07T11:38:58.155Z,1.42
2022-09-07T11:45:38.871Z,1.30
2022-09-07T11:48:43.408Z,1.40
2022-09-07T11:51:56.602Z,1.50
2022-09-07T11:54:59.756Z,1.52
2022-09-07T11:58:04.110Z,1.70
2022-09-07T12:01:25.901Z,1.38
2022-09-07T12:04:32.735Z,1.20
2022-09-07T12:07:38.875Z,1.25
2022-09-07T12:10:52.352Z,1.60
2022-09-07T12:13:53.636Z,1.50
2022-09-07T12:17:00.523Z,1.38
2022-09-07T12:20:11.167Z,1.23
2022-09-07T12:23:15.506Z,1.27
2022-09-07T12:26:35.537Z,1.10
2022-09-07T12:29:37.287Z,1.40
2022-09-07T12:33:01.679Z,1.38
2022-09-07T12:36:22.942Z,1.27
2022-09-07T12:39:25.603Z,1.30
2022-09-07T12:45:38.351Z,0.93
2022-09-07T12:48:48.818Z,1.42
2022-09-07T12:52:09.081Z,1.13
2022-09-07T12:55:31.109Z,1.05
2022-09-07T12:58:52.795Z,1.13
2022-09-07T13:02:12.954Z,1.35
2022-09-07T13:05:23.381Z,1.50
2022-09-07T13:08:42.615Z,1.10
2022-09-07T13:11:44.109Z,1.30
2022-09-07T13:14:50.862Z,1.45
2022-09-07T13:17:56.352Z,1.25
2022-09-07T13:21:06.574Z,1.25
2022-09-07T13:27:44.184Z,1.02
2022-09-07T13:30:50.548Z,1.10
2022-09-07T13:33:52.891Z,1.67
2022-09-07T13:36:54.350Z,1.17
2022-09-07T13:39:56.830Z,1.00
2022-09-07T13:42:59.159Z,1.50
2022-09-07T13:46:02.280Z,1.05
2022-09-07T13:49:11.351Z,1.10
2022-09-07T13:52:15.534Z,1.10
2022-09-07T13:55:35.479Z,1.40
2022-09-07T13:58:41.829Z,1.17
2022-09-07T14:01:44.993Z,1.38
2022-09-07T14:04:49.511Z,1.60
2022-09-07T14:07:50.772Z,1.38
2022-09-07T14:10:52.243Z,1.48
2022-09-07T14:14:06.309Z,1.02
2022-09-07T14:17:11.392Z,1.38
2022-09-07T14:20:16.396Z,1.10
2022-09-07T14:23:27.991Z,1.10
2022-09-07T14:26:29.632Z,1.10
2022-09-07T14:29:31.919Z,1.08
2022-09-07T14:32:33.239Z,1.08
2022-09-07T14:35:37.209Z,1.33
2022-09-07T14:42:01.854Z,1.10
2022-09-07T14:45:16.990Z,1.30
2022-09-07T14:51:34.799Z,1.30
2022-09-07T14:54:36.770Z,1.45
2022-09-07T14:57:38.003Z,1.45
2022-09-07T15:00:40.240Z,1.27
2022-09-07T15:03:41.467Z,1.65
2022-09-07T15:10:15.299Z,1.50
2022-09-07T15:13:24.518Z,1.45
2022-09-07T15:16:33.632Z,1.65
2022-09-07T15:19:34.999Z,1.40
2022-09-07T15:22:36.441Z,1.50
2022-09-07T15:25:38.011Z,1.67
2022-09-07T15:29:09.093Z,1.42
2022-09-07T15:32:04.263Z,1.20
2022-09-07T15:35:06.426Z,1.33
2022-09-07T15:41:29.678Z,1.52
2022-09-07T15:44:30.981Z,1.50
2022-09-07T15:47:51.708Z,1.35
2022-09-07T15:52:04.296Z,1.70
2022-09-07T15:54:26.224Z,1.23
2022-09-07T16:01:51.569Z,1.35
2022-09-07T16:04:14.667Z,1.38
2022-09-07T16:07:16.116Z,1.50
2022-09-07T16:10:17.834Z,1.20
2022-09-07T16:13:19.099Z,1.30
2022-09-07T16:16:20.710Z,1.10
2022-09-07T16:19:22.071Z,1.50
2022-09-07T16:25:57.713Z,1.30
2022-09-07T16:28:58.969Z,1.30
2022-09-07T16:35:21.478Z,1.25
2022-09-07T16:41:44.355Z,1.30
2022-09-07T16:44:45.641Z,1.10
2022-09-07T16:47:46.943Z,1.00
2022-09-07T16:50:56.587Z,1.10
2022-09-07T16:54:02.044Z,1.73
2022-09-07T16:57:03.366Z,1.42
2022-09-07T17:00:04.885Z,1.20
2022-09-07T17:03:06.232Z,1.50
2022-09-07T17:06:08.913Z,1.25
2022-09-07T17:09:14.367Z,1.27
2022-09-07T17:12:15.608Z,1.13
2022-09-07T17:15:16.890Z,1.35
2022-09-07T17:18:18.688Z,1.10
2022-09-07T17:21:20.525Z,1.23
2022-09-07T17:24:21.789Z,1.75
2022-09-07T17:27:23.072Z,1.50
2022-09-07T17:30:24.724Z,1.45
2022-09-07T17:33:26.224Z,1.33
2022-09-07T17:36:28.458Z,1.40
2022-09-07T17:39:30.005Z,1.38
2022-09-07T17:45:52.647Z,1.50
2022-09-07T17:48:57.950Z,1.55
2022-09-07T17:52:00.876Z,1.35
2022-09-07T17:55:03.709Z,2.38
2022-09-07T17:58:05.003Z,1.60
2022-09-07T18:01:07.810Z,1.40
2022-09-07T18:04:09.263Z,1.88
2022-09-07T18:07:10.832Z,1.67
2022-09-07T18:10:12.580Z,1.67
2022-09-07T18:13:13.850Z,1.50
2022-09-07T18:16:16.732Z,1.40
2022-09-07T18:19:18.749Z,1.77
2022-09-07T18:22:20.169Z,2.20
2022-09-07T18:25:21.486Z,1.50
2022-09-07T18:31:48.839Z,1.23
2022-09-07T18:34:50.900Z,1.48
2022-09-07T18:37:52.805Z,1.70
2022-09-07T18:41:01.778Z,1.75
2022-09-07T18:44:03.638Z,1.63
2022-09-07T18:47:06.355Z,1.50
2022-09-07T18:50:07.807Z,1.35
2022-09-07T18:53:16.487Z,1.60
2022-09-07T18:56:19.525Z,1.63
2022-09-07T18:59:20.804Z,1.83
2022-09-07T19:02:22.191Z,1.90
2022-09-07T19:08:46.388Z,2.40
2022-09-07T19:11:48.744Z,1.80
2022-09-07T19:14:50.062Z,1.65
2022-09-07T19:17:51.334Z,1.63
2022-09-07T19:20:52.655Z,1.85
2022-09-07T19:23:57.867Z,1.60
2022-09-07T19:27:00.712Z,2.03
2022-09-07T19:30:02.422Z,1.63
2022-09-07T19:33:04.702Z,1.50
2022-09-07T19:36:06.186Z,1.60
2022-09-07T19:39:07.499Z,1.63
2022-09-07T19:42:08.843Z,1.95
2022-09-07T19:45:10.391Z,1.92
2022-09-07T19:48:11.963Z,1.70
2022-09-07T19:51:14.195Z,1.90
2022-09-07T19:54:15.458Z,1.83
2022-09-07T19:57:16.732Z,2.30
2022-09-07T20:00:18.123Z,1.70
2022-09-07T20:03:19.411Z,1.80
2022-09-07T20:06:20.715Z,2.13
2022-09-07T20:09:21.988Z,1.98
2022-09-07T20:12:23.362Z,1.80
2022-09-07T20:15:24.799Z,1.92
2022-09-07T20:18:26.615Z,1.70
2022-09-07T20:21:28.003Z,1.75
2022-09-07T20:24:29.281Z,1.85
2022-09-07T20:27:30.618Z,2.10
2022-09-07T20:30:33.770Z,1.83
2022-09-07T20:33:35.272Z,2.10
2022-09-07T20:36:36.626Z,1.83
2022-09-07T20:39:39.523Z,1.80
2022-09-07T20:42:41.063Z,1.60
2022-09-07T20:45:42.302Z,1.63
2022-09-07T20:48:43.568Z,1.50
2022-09-07T20:51:44.863Z,1.65
2022-09-07T20:54:46.118Z,1.73
2022-09-07T20:57:47.441Z,1.60
2022-09-07T21:00:52.075Z,1.80
2022-09-07T21:03:54.397Z,1.75
2022-09-07T21:06:55.669Z,1.50
2022-09-07T21:09:56.902Z,1.60
2022-09-07T21:12:58.275Z,1.67
2022-09-07T21:16:02.614Z,1.70
2022-09-07T21:19:05.759Z,1.80
2022-09-07T21:22:07.041Z,1.70
2022-09-07T21:25:08.703Z,1.60
2022-09-07T21:28:10.226Z,1.88
2022-09-07T21:31:11.552Z,1.75
2022-09-07T21:34:13.315Z,1.80
2022-09-07T21:37:14.574Z,1.65
2022-09-07T21:40:16.587Z,1.77
2022-09-07T21:43:17.926Z,1.88
2022-09-07T21:46:19.327Z,1.52
2022-09-07T21:49:20.692Z,1.90
2022-09-07T21:52:21.955Z,1.80
2022-09-07T21:55:23.446Z,1.80
2022-09-07T21:58:25.234Z,1.92
2022-09-07T22:01:27.329Z,1.90
2022-09-07T22:04:28.655Z,1.90
2022-09-07T22:07:31.009Z,2.20
2022-09-07T22:10:33.058Z,1.90
2022-09-07T22:13:34.697Z,2.40
2022-09-07T22:16:36.246Z,2.08
2022-09-07T22:19:38.984Z,1.73
2022-09-07T22:22:40.342Z,1.95
2022-09-07T22:25:51.239Z,1.80
2022-09-07T22:28:52.568Z,2.42
2022-09-07T22:31:53.852Z,1.67
2022-09-07T22:34:55.578Z,1.88
2022-09-07T22:37:56.832Z,2.05
2022-09-07T22:41:05.290Z,1.90
2022-09-07T22:44:08.265Z,1.73
2022-09-07T22:47:09.770Z,2.00
2022-09-07T22:50:11.484Z,2.22
2022-09-07T22:53:12.761Z,2.30
2022-09-07T22:56:15.502Z,2.15
2022-09-07T22:59:16.765Z,2.47
2022-09-07T23:02:18.015Z,2.17
2022-09-07T23:05:19.253Z,2.42
2022-09-07T23:08:20.498Z,2.40
2022-09-07T23:11:22.563Z,2.40
2022-09-07T23:14:24.304Z,2.40
2022-09-07T23:17:25.587Z,1.80
2022-09-07T23:20:26.900Z,2.15
2022-09-07T23:23:28.809Z,2.42
2022-09-07T23:26:30.969Z,1.77
2022-09-07T23:29:32.245Z,1.75
2022-09-07T23:32:33.902Z,2.67
2022-09-07T23:35:35.241Z,1.90
2022-09-07T23:38:36.550Z,1.70
2022-09-07T23:41:37.891Z,1.83
2022-09-07T23:44:39.271Z,1.83
2022-09-07T23:47:40.696Z,1.50
2022-09-07T23:50:43.391Z,1.52
2022-09-07T23:53:44.663Z,1.25
2022-09-07T23:56:45.994Z,1.33
2022-09-07T23:59:47.259Z,1.85
